Time;durP1;ratioP1;P1;durP2;ratioP2;P2;SDS_P1;SDS_P2;PMS_P1;PMS_P2;Temp;Humidity;BMP_temperature;BMP_pressure;BME280_temperature;BME280_humidity;BME280_pressure;Samples;Min_cycle;Max_cycle;Signal;HPM_P1;HPM_P2
2023/03/11 00:02:07;;;;;;;;;;;;;;;-144.98;100.00;62585.19;4957703;29;19945;-68
2023/03/11 00:05:23;;;;;;;;;;;;;;;-144.98;100.00;62585.19;4957964;29;19966;-68
2023/03/11 00:08:27;;;;;;;;;;;;;;;-144.98;100.00;62585.19;4957798;29;19926;-68
2023/03/11 00:11:30;;;;;;;;;;;;;;;-144.98;100.00;62585.19;4957762;29;19973;-68
2023/03/11 00:14:33;;;;;;;;;;;;;;;-144.98;100.00;62585.19;4957771;29;19973;-68
2023/03/11 00:17:37;;;;;;;;;;;;;;;-144.98;100.00;62585.19;4957574;29;19973;-68
2023/03/11 00:20:42;;;;;;;;;;;;;;;-144.98;100.00;62585.19;4957448;29;19945;-68
2023/03/11 00:23:45;;;;;;;;;;;;;;;-144.98;100.00;62585.19;4957520;28;19946;-68
2023/03/11 00:26:48;;;;;;;;;;;;;;;-144.98;100.00;62585.19;4957419;29;19925;-68
2023/03/11 00:29:51;;;;;;;;;;;;;;;-144.98;100.00;62585.19;4956856;29;19941;-68
2023/03/11 00:32:55;;;;;;;;;;;;;;;-144.98;100.00;62585.19;4957511;29;19974;-68
2023/03/11 00:35:58;;;;;;;;;;;;;;;-144.98;100.00;62585.19;4956223;29;19964;-68
2023/03/11 00:39:05;;;;;;;;;;;;;;;-144.98;100.00;62585.19;4945252;29;20438;-68
2023/03/11 00:42:08;;;;;;;;;;;;;;;-144.98;100.00;62585.19;4956569;28;19950;-68
2023/03/11 00:45:12;;;;;;;;;;;;;;;-144.98;100.00;62585.19;4956833;29;19925;-68
2023/03/11 00:48:15;;;;;;;;;;;;;;;-144.98;100.00;62585.19;4944703;29;19950;-68
2023/03/11 00:51:19;;;;;;;;;;;;;;;-144.98;100.00;62585.19;4956836;29;19954;-68
2023/03/11 00:54:22;;;;;;;;;;;;;;;-144.98;100.00;62585.19;4956690;29;20401;-68
2023/03/11 00:57:28;;;;;;;;;;;;;;;-144.98;100.00;62585.19;4944989;29;20370;-68
2023/03/11 01:00:31;;;;;;;;;;;;;;;-144.98;100.00;62585.19;4944674;29;19926;-68
2023/03/11 01:03:35;;;;;;;;;;;;;;;-144.98;100.00;62585.19;4956663;29;20026;-68
2023/03/11 01:06:38;;;;;;;;;;;;;;;-144.98;100.00;62585.19;4956843;29;19926;-68
2023/03/11 01:09:41;;;;;;;;;;;;;;;-144.98;100.00;62585.19;4956328;29;20406;-68
2023/03/11 01:12:44;;;;;;;;;;;;;;;-144.98;100.00;62585.19;4956838;29;19925;-68
2023/03/11 01:15:47;;;;;;;;;;;;;;;-144.98;100.00;62585.19;4956342;29;19946;-68
2023/03/11 01:18:50;;;;;;;;;;;;;;;-144.98;100.00;62585.19;4944528;29;19925;-68
2023/03/11 01:21:53;;;;;;;;;;;;;;;-144.98;100.00;62585.19;4956051;28;19929;-68
2023/03/11 01:24:56;;;;;;;;;;;;;;;-144.98;100.00;62585.19;4956173;29;19925;-68
2023/03/11 01:28:00;;;;;;;;;;;;;;;-144.98;100.00;62585.19;4956168;29;19965;-68
2023/03/11 01:31:03;;;;;;;;;;;;;;;-144.98;100.00;62585.19;4956131;29;19973;-68
2023/03/11 01:34:07;;;;;;;;;;;;;;;-144.98;100.00;62585.19;4944167;29;19926;-68
2023/03/11 01:37:10;;;;;;;;;;;;;;;-144.98;100.00;62585.19;4955965;29;20310;-68
2023/03/11 01:40:15;;;;;;;;;;;;;;;-144.98;100.00;62585.19;4956425;29;20283;-68
2023/03/11 01:43:40;;;;;;;;;;;;;;;-144.98;100.00;62585.19;4944065;29;19937;-68
2023/03/11 01:46:53;;;;;;;;;;;;;;;-144.98;100.00;62585.19;4944012;29;19972;-68
2023/03/11 01:50:00;;;;;;;;;;;;;;;-144.98;100.00;62585.19;4943909;29;19925;-68
2023/03/11 01:53:04;;;;;;;;;;;;;;;-144.98;100.00;62585.19;4942878;29;20030;-68
2023/03/11 01:56:08;;;;;;;;;;;;;;;-144.98;100.00;62585.19;4955648;29;20029;-67
2023/03/11 01:59:12;;;;;;;;;;;;;;;-144.98;100.00;62585.19;4943702;29;19925;-67
2023/03/11 02:02:21;;;;;;;;;;;;;;;-144.98;100.00;62585.19;4943662;29;19930;-67
2023/03/11 02:05:24;;;;;;;;;;;;;;;-144.98;100.00;62585.19;4943945;29;19929;-67
2023/03/11 02:08:29;;;;;;;;;;;;;;;-144.98;100.00;62585.19;4954560;29;20454;-68
2023/03/11 02:11:33;;;;;;;;;;;;;;;-144.98;100.00;62585.19;4954680;29;20287;-67
2023/03/11 02:14:39;;;;;;;;;;;;;;;-144.98;100.00;62585.19;4954898;29;19941;-68
2023/03/11 02:17:43;;;;;;;;;;;;;;;-144.98;100.00;62585.19;4940323;29;19925;-68
2023/03/11 02:20:53;;;;;;;;;;;;;;;-144.98;100.00;62585.19;4955508;29;19930;-68
2023/03/11 02:24:15;;;;;;;;;;;;;;;-144.98;100.00;62585.19;4955038;28;19925;-67
2023/03/11 02:27:20;;;;;;;;;;;;;;;-144.98;100.00;62585.19;4943311;29;19925;-68
2023/03/11 02:30:26;;;;;;;;;;;;;;;-144.98;100.00;62585.19;4937757;29;19929;-68
2023/03/11 02:33:31;;;;;;;;;;;;;;;-144.98;100.00;62585.19;4943360;29;19925;-68
2023/03/11 02:36:34;;;;;;;;;;;;;;;-144.98;100.00;62585.19;4943262;29;19965;-68
2023/03/11 02:39:40;;;;;;;;;;;;;;;-144.98;100.00;62585.19;4943223;29;20294;-68
2023/03/11 02:42:45;;;;;;;;;;;;;;;-144.98;100.00;62585.19;4954234;29;19949;-67
2023/03/11 02:45:48;;;;;;;;;;;;;;;-144.98;100.00;62585.19;4955066;29;19965;-68
2023/03/11 02:48:52;;;;;;;;;;;;;;;-144.98;100.00;62585.19;4926716;29;19929;-68
2023/03/11 02:51:55;;;;;;;;;;;;;;;-144.98;100.00;62585.19;4935902;29;20295;-68
2023/03/11 02:54:58;;;;;;;;;;;;;;;-144.98;100.00;62585.19;4935770;29;19972;-68
2023/03/11 02:58:01;;;;;;;;;;;;;;;-144.98;100.00;62585.19;4936055;29;19929;-68
2023/03/11 03:01:05;;;;;;;;;;;;;;;-144.98;100.00;62585.19;4935770;29;19933;-68
2023/03/11 03:04:08;;;;;;;;;;;;;;;-144.98;100.00;62585.19;4936436;29;19926;-68
2023/03/11 03:07:11;;;;;;;;;;;;;;;-144.98;100.00;62585.19;4939485;29;19925;-68
2023/03/11 03:10:15;;;;;;;;;;;;;;;-144.98;100.00;62585.19;4939915;29;19945;-68
2023/03/11 03:13:19;;;;;;;;;;;;;;;-144.98;100.00;62585.19;4939515;29;19925;-68
2023/03/11 03:16:22;;;;;;;;;;;;;;;-144.98;100.00;62585.19;4939469;29;20351;-68
2023/03/11 03:19:25;;;;;;;;;;;;;;;-144.98;100.00;62585.19;4939464;29;20306;-68
2023/03/11 03:22:29;;;;;;;;;;;;;;;-144.98;100.00;62585.19;4927354;29;20320;-68
2023/03/11 03:25:32;;;;;;;;;;;;;;;-144.98;100.00;62585.19;4939365;29;19950;-68
2023/03/11 03:28:39;;;;;;;;;;;;;;;-144.98;100.00;62585.19;4927775;29;19926;-68
2023/03/11 03:31:43;;;;;;;;;;;;;;;-144.98;100.00;62585.19;4927286;29;19969;-68
2023/03/11 03:34:46;;;;;;;;;;;;;;;-144.98;100.00;62585.19;4927279;29;19946;-68
2023/03/11 03:37:49;;;;;;;;;;;;;;;-144.98;100.00;62585.19;4939032;29;20018;-68
2023/03/11 03:40:53;;;;;;;;;;;;;;;-144.98;100.00;62585.19;4939274;29;19985;-68
2023/03/11 03:43:58;;;;;;;;;;;;;;;-144.98;100.00;62585.19;4927159;29;19926;-68
2023/03/11 03:47:01;;;;;;;;;;;;;;;-144.98;100.00;62585.19;4928862;29;20405;-68
2023/03/11 03:50:06;;;;;;;;;;;;;;;-144.98;100.00;62585.19;4946150;29;19938;-68
2023/03/11 03:53:09;;;;;;;;;;;;;;;-144.98;100.00;62585.19;4935218;29;19992;-68
2023/03/11 03:56:14;;;;;;;;;;;;;;;-144.98;100.00;62585.19;4945974;29;19924;-68
2023/03/11 03:59:17;;;;;;;;;;;;;;;-144.98;100.00;62585.19;4957874;29;19926;-68
2023/03/11 04:02:26;;;;;;;;;;;;;;;-144.98;100.00;62585.19;4945874;29;19977;-68
2023/03/11 04:05:30;;;;;;;;;;;;;;;-144.98;100.00;62585.19;4945885;29;19973;-68
2023/03/11 04:08:33;;;;;;;;;;;;;;;-144.98;100.00;62585.19;4945787;29;19925;-68
2023/03/11 04:11:37;;;;;;;;;;;;;;;-144.98;100.00;62585.19;4955550;29;19960;-68
2023/03/11 04:14:40;;;;;;;;;;;;;;;-144.98;100.00;62585.19;4945635;29;20032;-68
2023/03/11 04:17:44;;;;;;;;;;;;;;;-144.98;100.00;62585.19;4945262;29;20295;-68
2023/03/11 04:20:48;;;;;;;;;;;;;;;-144.98;100.00;62585.19;4945365;29;19977;-68
2023/03/11 04:23:51;;;;;;;;;;;;;;;-144.98;100.00;62585.19;4945357;29;20017;-68
2023/03/11 04:26:58;;;;;;;;;;;;;;;-144.98;100.00;62585.19;4945612;29;20017;-67
2023/03/11 04:30:01;;;;;;;;;;;;;;;-144.98;100.00;62585.19;4945406;29;19972;-68
2023/03/11 04:33:06;;;;;;;;;;;;;;;-144.98;100.00;62585.19;4945392;29;19925;-68
2023/03/11 04:36:10;;;;;;;;;;;;;;;-144.98;100.00;62585.19;4957177;29;19925;-67
2023/03/11 04:39:14;;;;;;;;;;;;;;;-144.98;100.00;62585.19;4945230;29;19929;-68
2023/03/11 04:42:19;;;;;;;;;;;;;;;-144.98;100.00;62585.19;4944805;29;20009;-68
2023/03/11 04:45:24;;;;;;;;;;;;;;;-144.98;100.00;62585.19;4945184;29;19934;-68
2023/03/11 04:48:30;;;;;;;;;;;;;;;-144.98;100.00;62585.19;4944788;29;19945;-68
2023/03/11 04:51:33;;;;;;;;;;;;;;;-144.98;100.00;62585.19;4945133;29;20323;-68
2023/03/11 04:54:36;;;;;;;;;;;;;;;-144.98;100.00;62585.19;4945044;29;19972;-68
2023/03/11 04:57:40;;;;;;;;;;;;;;;-144.98;100.00;62585.19;4956912;29;19925;-68
2023/03/11 05:00:44;;;;;;;;;;;;;;;-144.98;100.00;62585.19;4944388;29;20016;-68
2023/03/11 05:04:20;;;;;;;;;;;;;;;-144.98;100.00;62585.19;4944737;29;20294;-68
2023/03/11 05:17:01;;;;;;;;;;;;;;;-144.98;100.00;62585.19;4878867;29;19931;-68
2023/03/11 05:24:46;;;;;;;;;;;;;;;-144.98;100.00;62585.19;4839143;29;20447;-67
2023/03/11 05:28:11;;;;;;;;;;;;;;;-144.98;100.00;62585.19;4840775;29;20413;-68
2023/03/11 05:31:37;;;;;;;;;;;;;;;-144.98;100.00;62585.19;4841401;29;19963;-67
2023/03/11 05:34:41;;;;;;;;;;;;;;;-144.98;100.00;62585.19;4929527;29;19925;-68
2023/03/11 05:37:44;;;;;;;;;;;;;;;-144.98;100.00;62585.19;4940873;29;19974;-67
2023/03/11 05:40:47;;;;;;;;;;;;;;;-144.98;100.00;62585.19;4944069;29;20019;-67
2023/03/11 05:43:53;;;;;;;;;;;;;;;-144.98;100.00;62585.19;4944154;29;19924;-67
2023/03/11 05:46:57;;;;;;;;;;;;;;;-144.98;100.00;62585.19;4943668;29;19929;-68
2023/03/11 05:50:00;;;;;;;;;;;;;;;-144.98;100.00;62585.19;4943895;29;19925;-67
2023/03/11 05:53:04;;;;;;;;;;;;;;;-144.98;100.00;62585.19;4943781;29;19946;-67
2023/03/11 05:56:08;;;;;;;;;;;;;;;-144.98;100.00;62585.19;4943333;29;19927;-67
2023/03/11 05:59:13;;;;;;;;;;;;;;;-144.98;100.00;62585.19;4933072;29;20385;-68
2023/03/11 06:02:44;;;;;;;;;;;;;;;-144.98;100.00;62585.19;4943762;29;19929;-68
2023/03/11 06:05:52;;;;;;;;;;;;;;;-144.98;100.00;62585.19;4921101;29;19929;-68
2023/03/11 06:09:32;;;;;;;;;;;;;;;;;;;;;
2023/03/11 06:12:43;;;;;;;;;;;;;;;-144.98;100.00;62585.19;4953138;29;19926;-69
2023/03/11 06:15:58;;;;;;;;;;;;;;;-144.98;100.00;62585.19;4942368;29;20354;-66
2023/03/11 06:19:02;;;;;;;;;;;;;;;-144.98;100.00;62585.19;4942077;29;19929;-66
2023/03/11 06:22:08;;;;;;;;;;;;;;;-144.98;100.00;62585.19;4941996;28;20350;-67
2023/03/11 06:25:12;;;;;;;;;;;;;;;-144.98;100.00;62585.19;4955342;29;19946;-69
2023/03/11 06:28:16;;;;;;;;;;;;;;;-144.98;100.00;62585.19;4943213;29;20054;-66
2023/03/11 06:31:25;;;;;;;;;;;;;;;-144.98;100.00;62585.19;4943291;29;19926;-68
2023/03/11 06:34:32;;;;;;;;;;;;;;;-144.98;100.00;62585.19;4932627;29;20417;-67
2023/03/11 06:37:36;;;;;;;;;;;;;;;-144.98;100.00;62585.19;4942830;29;19926;-67
2023/03/11 06:40:39;;;;;;;;;;;;;;;-144.98;100.00;62585.19;4942612;29;19925;-67
2023/03/11 06:43:42;;;;;;;;;;;;;;;-144.98;100.00;62585.19;4943372;29;19946;-67
2023/03/11 06:46:45;;;;;;;;;;;;;;;-144.98;100.00;62585.19;4942953;29;19925;-67
2023/03/11 06:49:50;;;;;;;;;;;;;;;-144.98;100.00;62585.19;4942714;29;19937;-67
2023/03/11 06:52:57;;;;;;;;;;;;;;;-144.98;100.00;62585.19;4942544;29;20035;-67
2023/03/11 06:56:17;;;;;;;;;;;;;;;-144.98;100.00;62585.19;4939584;29;19926;-66
2023/03/11 06:59:51;;;;;;;;;;;;;;;-144.98;100.00;62585.19;4942717;29;19946;-67
2023/03/11 07:02:55;;;;;;;;;;;;;;;-144.98;100.00;62585.19;4942717;29;19982;-68
2023/03/11 07:05:59;;;;;;;;;;;;;;;-144.98;100.00;62585.19;4955085;29;20026;-67
2023/03/11 07:09:03;;;;;;;;;;;;;;;-144.98;100.00;62585.19;4937799;29;19929;-67
2023/03/11 07:16:09;;;;;;;;;;;;;;;-144.98;100.00;62585.19;4942194;29;20014;-66
2023/03/11 07:19:15;;;;;;;;;;;;;;;-144.98;100.00;62585.19;4943153;29;20005;-69
2023/03/11 07:22:22;;;;;;;;;;;;;;;-144.98;100.00;62585.19;4943275;28;19929;-74
2023/03/11 07:25:25;;;;;;;;;;;;;;;-144.98;100.00;62585.19;4954657;29;19929;-73
2023/03/11 07:28:28;;;;;;;;;;;;;;;-144.98;100.00;62585.19;4953874;29;19998;-72
2023/03/11 07:31:33;;;;;;;;;;;;;;;-144.98;100.00;62585.19;4941802;29;19926;-74
2023/03/11 07:34:35;;;;;;;;;;;;;;;-144.98;100.00;62585.19;4954191;29;19925;-76
2023/03/11 07:37:39;;;;;;;;;;;;;;;-144.98;100.00;62585.19;4942360;29;19946;-72
2023/03/11 07:40:46;;;;;;;;;;;;;;;-144.98;100.00;62585.19;4943182;29;20386;-72
2023/03/11 07:43:53;;;;;;;;;;;;;;;-144.98;100.00;62585.19;4954700;29;19926;-71
2023/03/11 07:46:56;;;;;;;;;;;;;;;-144.98;100.00;62585.19;4954194;29;19965;-71
2023/03/11 07:50:10;;;;;;;;;;;;;;;-144.98;100.00;62585.19;4954794;28;19925;-71
2023/03/11 07:53:24;;;;;;;;;;;;;;;-144.98;100.00;62585.19;4957724;29;20190;-71
2023/03/11 07:56:33;;;;;;;;;;;;;;;-144.98;100.00;62585.19;4956634;29;20330;-70
2023/03/11 07:59:37;;;;;;;;;;;;;;;-144.98;100.00;62585.19;4953328;29;19926;-70
2023/03/11 08:02:47;;;;;;;;;;;;;;;-144.98;100.00;62585.19;4957673;29;19929;-71
2023/03/11 08:06:16;;;;;;;;;;;;;;;-144.98;100.00;62585.19;4944838;29;19989;-72
2023/03/11 08:09:49;;;;;;;;;;;;;;;-144.98;100.00;62585.19;4957816;29;19929;-72
2023/03/11 08:12:52;;;;;;;;;;;;;;;-144.98;100.00;62585.19;4956939;29;19982;-73
2023/03/11 08:15:55;;;;;;;;;;;;;;;-144.98;100.00;62585.19;4957835;29;19957;-74
2023/03/11 08:19:28;;;;;;;;;;;;;;;-144.98;100.00;62585.19;4957605;29;19969;-76
2023/03/11 08:22:37;;;;;;;;;;;;;;;-144.98;100.00;62585.19;4935487;28;20027;-74
2023/03/11 08:25:41;;;;;;;;;;;;;;;-144.98;100.00;62585.19;4957715;29;19997;-75
2023/03/11 08:28:45;;;;;;;;;;;;;;;-144.98;100.00;62585.19;4956595;29;19926;-81
2023/03/11 08:31:47;;;;;;;;;;;;;;;-144.98;100.00;62585.19;4954963;29;19942;-74
2023/03/11 08:34:50;;;;;;;;;;;;;;;-144.98;100.00;62585.19;4956372;29;20298;-69
2023/03/11 08:38:18;;;;;;;;;;;;;;;-144.98;100.00;62585.19;4957421;29;19925;-73
2023/03/11 08:41:21;;;;;;;;;;;;;;;-144.98;100.00;62585.19;4956903;29;20025;-72
2023/03/11 08:44:24;;;;;;;;;;;;;;;-144.98;100.00;62585.19;4957142;29;19966;-72
2023/03/11 08:47:27;;;;;;;;;;;;;;;-144.98;100.00;62585.19;4956955;29;19945;-71
2023/03/11 08:50:30;;;;;;;;;;;;;;;-144.98;100.00;62585.19;4956991;29;20371;-72
2023/03/11 08:53:33;;;;;;;;;;;;;;;-144.98;100.00;62585.19;4952869;29;19926;-73
2023/03/11 08:56:36;;;;;;;;;;;;;;;-144.98;100.00;62585.19;4956797;29;20283;-72
2023/03/11 08:59:39;;;;;;;;;;;;;;;-144.98;100.00;62585.19;4955573;29;19946;-76
2023/03/11 09:02:42;;;;;;;;;;;;;;;-144.98;100.00;62585.19;4955838;28;20022;-75
2023/03/11 09:06:14;;;;;;;;;;;;;;;-144.98;100.00;62585.19;4940576;29;19925;-76
2023/03/11 09:09:19;;;;;;;;;;;;;;;-144.98;100.00;62585.19;4944137;29;19926;-76
2023/03/11 09:12:24;;;;;;;;;;;;;;;-144.98;100.00;62585.19;4944641;29;19953;-77
2023/03/11 09:15:27;;;;;;;;;;;;;;;-144.98;100.00;62585.19;4955327;29;19974;-76
2023/03/11 09:18:30;;;;;;;;;;;;;;;-144.98;100.00;62585.19;4956608;29;20009;-76
2023/03/11 09:21:37;;;;;;;;;;;;;;;-144.98;100.00;62585.19;4956270;29;20014;-76
2023/03/11 09:24:41;;;;;;;;;;;;;;;-144.98;100.00;62585.19;4956361;29;19961;-76
2023/03/11 09:27:44;;;;;;;;;;;;;;;-144.98;100.00;62585.19;4944362;29;19925;-76
2023/03/11 09:30:47;;;;;;;;;;;;;;;-144.98;100.00;62585.19;4944319;29;20319;-75
2023/03/11 09:33:55;;;;;;;;;;;;;;;-144.98;100.00;62585.19;4955773;29;20381;-75
2023/03/11 09:36:57;;;;;;;;;;;;;;;-144.98;100.00;62585.19;4954493;29;19978;-75
2023/03/11 09:40:00;;;;;;;;;;;;;;;-144.98;100.00;62585.19;4955913;29;19925;-76
2023/03/11 09:43:22;;;;;;;;;;;;;;;-144.98;100.00;62585.19;4955748;29;20306;-76
2023/03/11 09:46:33;;;;;;;;;;;;;;;-144.98;100.00;62585.19;4955774;29;19966;-75
2023/03/11 09:49:50;;;;;;;;;;;;;;;-144.98;100.00;62585.19;4955891;29;20006;-75
2023/03/11 09:53:09;;;;;;;;;;;;;;;-144.98;100.00;62585.19;4955912;29;20291;-76
2023/03/11 09:56:14;;;;;;;;;;;;;;;-144.98;100.00;62585.19;4956106;29;19962;-74
2023/03/11 09:59:22;;;;;;;;;;;;;;;-144.98;100.00;62585.19;4955744;29;20429;-74
2023/03/11 10:02:31;;;;;;;;;;;;;;;-144.98;100.00;62585.19;4955649;29;19929;-73
2023/03/11 10:05:42;;;;;;;;;;;;;;;-144.98;100.00;62585.19;4955591;29;20442;-74
2023/03/11 10:13:06;;;;;;;;;;;;;;;-144.98;100.00;62585.19;4955483;28;19966;-74
2023/03/11 10:16:31;;;;;;;;;;;;;;;-144.98;100.00;62585.19;4955754;29;19929;-74
2023/03/11 10:23:35;;;;;;;;;;;;;;;-144.98;100.00;62585.19;4955357;28;19938;-75
2023/03/11 10:31:01;;;;;;;;;;;;;;;-144.98;100.00;62585.19;4940076;29;19925;-75
2023/03/11 10:34:12;;;;;;;;;;;;;;;-144.98;100.00;62585.19;4942466;29;20216;-74
2023/03/11 10:41:54;;;;;;;;;;;;;;;-144.98;100.00;62585.19;4951944;29;19929;-73
2023/03/11 10:44:57;;;;;;;;;;;;;;;-144.98;100.00;62585.19;4953927;29;19926;-77
2023/03/11 10:48:00;;;;;;;;;;;;;;;-144.98;100.00;62585.19;4953449;29;20351;-73
2023/03/11 10:51:13;;;;;;;;;;;;;;;-144.98;100.00;62585.19;4953336;29;20009;-75
2023/03/11 10:54:27;;;;;;;;;;;;;;;-144.98;100.00;62585.19;4942050;29;20034;-73
2023/03/11 10:57:35;;;;;;;;;;;;;;;-144.98;100.00;62585.19;4955118;29;19926;-73
2023/03/11 11:00:38;;;;;;;;;;;;;;;-144.98;100.00;62585.19;4951409;29;20062;-73
2023/03/11 11:03:42;;;;;;;;;;;;;;;-144.98;100.00;62585.19;4953500;29;19929;-73
2023/03/11 11:06:45;;;;;;;;;;;;;;;-144.98;100.00;62585.19;4953703;29;19928;-74
2023/03/11 11:10:08;;;;;;;;;;;;;;;-144.98;100.00;62585.19;4954206;29;19929;-74
2023/03/11 11:13:11;;;;;;;;;;;;;;;-144.98;100.00;62585.19;4954179;29;19925;-73
2023/03/11 11:16:14;;;;;;;;;;;;;;;-144.98;100.00;62585.19;4954277;29;19929;-73
2023/03/11 11:27:02;;;;;;;;;;;;;;;-144.98;100.00;62585.19;4958568;29;19988;-71
2023/03/11 11:33:49;;;;;;;;;;;;;;;-144.98;100.00;62585.19;4958471;29;19926;-71
2023/03/11 11:36:58;;;;;;;;;;;;;;;-144.98;100.00;62585.19;4958400;29;19974;-71
2023/03/11 11:40:14;;;;;;;;;;;;;;;-144.98;100.00;62585.19;4958199;29;19981;-71
2023/03/11 11:43:43;;;;;;;;;;;;;;;-144.98;100.00;62585.19;4958279;29;19947;-72
2023/03/11 11:46:58;;;;;;;;;;;;;;;-144.98;100.00;62585.19;4935628;29;19974;-73
2023/03/11 11:50:03;;;;;;;;;;;;;;;-144.98;100.00;62585.19;4957931;29;19934;-73
2023/03/11 11:53:23;;;;;;;;;;;;;;;-144.98;100.00;62585.19;4958356;29;19946;-72
2023/03/11 11:56:28;;;;;;;;;;;;;;;-144.98;100.00;62585.19;4957947;29;19925;-73
2023/03/11 11:59:31;;;;;;;;;;;;;;;-144.98;100.00;62585.19;4957982;29;19925;-71
2023/03/11 12:02:51;;;;;;;;;;;;;;;-144.98;100.00;62585.19;4957906;29;19929;-74
2023/03/11 12:05:57;;;;;;;;;;;;;;;-144.98;100.00;62585.19;4958056;29;20106;-72
2023/03/11 12:09:10;;;;;;;;;;;;;;;-144.98;100.00;62585.19;4957717;29;19926;-74
2023/03/11 12:12:19;;;;;;;;;;;;;;;-144.98;100.00;62585.19;4957660;29;19925;-75
2023/03/11 12:15:28;;;;;;;;;;;;;;;-144.98;100.00;62585.19;4957977;29;19941;-76
2023/03/11 12:18:31;;;;;;;;;;;;;;;-144.98;100.00;62585.19;4957557;29;20426;-73
2023/03/11 12:21:53;;;;;;;;;;;;;;;-144.98;100.00;62585.19;4957195;29;19930;-74
2023/03/11 12:25:03;;;;;;;;;;;;;;;-144.98;100.00;62585.19;4957550;29;19925;-72
2023/03/11 12:28:24;;;;;;;;;;;;;;;-144.98;100.00;62585.19;4957797;29;19926;-75
2023/03/11 12:31:30;;;;;;;;;;;;;;;-144.98;100.00;62585.19;4957318;29;20005;-74
2023/03/11 12:34:34;;;;;;;;;;;;;;;-144.98;100.00;62585.19;4945022;29;19981;-77
2023/03/11 12:37:38;;;;;;;;;;;;;;;-144.98;100.00;62585.19;4944786;29;20409;-77
2023/03/11 12:40:45;;;;;;;;;;;;;;;-144.98;100.00;62585.19;4957271;29;20286;-72
2023/03/11 12:43:49;;;;;;;;;;;;;;;-144.98;100.00;62585.19;4957203;29;19945;-77
2023/03/11 12:46:58;;;;;;;;;;;;;;;-144.98;100.00;62585.19;4957386;29;19930;-77
2023/03/11 12:50:20;;;;;;;;;;;;;;;-144.98;100.00;62585.19;4957036;29;20463;-74
2023/03/11 12:53:42;;;;;;;;;;;;;;;-144.98;100.00;62585.19;4956984;29;20338;-75
2023/03/11 12:56:54;;;;;;;;;;;;;;;-144.98;100.00;62585.19;4956897;29;19926;-75
2023/03/11 13:00:21;;;;;;;;;;;;;;;-144.98;100.00;62585.19;4957328;29;19977;-74
2023/03/11 13:03:28;;;;;;;;;;;;;;;-144.98;100.00;62585.19;4957936;29;19928;-74
2023/03/11 13:06:50;;;;;;;;;;;;;;;-144.98;100.00;62585.19;4952089;29;19926;-79
2023/03/11 13:10:06;;;;;;;;;;;;;;;-144.98;100.00;62585.19;4945226;29;19973;-77
2023/03/11 13:13:22;;;;;;;;;;;;;;;-144.98;100.00;62585.19;4956595;29;19972;-77
2023/03/11 13:16:25;;;;;;;;;;;;;;;-144.98;100.00;62585.19;4944783;29;20111;-82
2023/03/11 13:19:28;;;;;;;;;;;;;;;-144.98;100.00;62585.19;4956413;29;19925;-74
2023/03/11 13:22:42;;;;;;;;;;;;;;;-144.98;100.00;62585.19;4956357;28;20025;-76
2023/03/11 13:25:48;;;;;;;;;;;;;;;-144.98;100.00;62585.19;4956402;29;19925;-77
2023/03/11 13:29:24;;;;;;;;;;;;;;;-144.98;100.00;62585.19;4956370;29;19966;-73
2023/03/11 13:32:33;;;;;;;;;;;;;;;-144.98;100.00;62585.19;4931539;29;20021;-79
2023/03/11 13:35:56;;;;;;;;;;;;;;;-144.98;100.00;62585.19;4956421;29;19949;-77
2023/03/11 13:39:28;;;;;;;;;;;;;;;-144.98;100.00;62585.19;4956476;29;19929;-74
2023/03/11 13:42:52;;;;;;;;;;;;;;;-144.98;100.00;62585.19;4955948;29;20346;-76
2023/03/11 13:45:55;;;;;;;;;;;;;;;-144.98;100.00;62585.19;4955938;29;20017;-76
2023/03/11 13:49:13;;;;;;;;;;;;;;;-144.98;100.00;62585.19;4954920;28;19929;-78
2023/03/11 13:52:28;;;;;;;;;;;;;;;-144.98;100.00;62585.19;4954547;29;19976;-74
2023/03/11 13:55:39;;;;;;;;;;;;;;;-144.98;100.00;62585.19;4944080;29;19926;-76
2023/03/11 13:58:42;;;;;;;;;;;;;;;-144.98;100.00;62585.19;4943686;29;19926;-76
2023/03/11 14:01:52;;;;;;;;;;;;;;;-144.98;100.00;62585.19;4955462;29;19933;-77
2023/03/11 14:05:05;;;;;;;;;;;;;;;-144.98;100.00;62585.19;4955747;29;19926;-78
2023/03/11 14:08:19;;;;;;;;;;;;;;;-144.98;100.00;62585.19;4955445;29;20398;-78
2023/03/11 14:11:28;;;;;;;;;;;;;;;-144.98;100.00;62585.19;4949572;29;19966;-80
2023/03/11 14:14:44;;;;;;;;;;;;;;;-144.98;100.00;62585.19;4955419;29;19945;-78
2023/03/11 14:17:50;;;;;;;;;;;;;;;-144.98;100.00;62585.19;4943708;29;19925;-76
2023/03/11 14:20:53;;;;;;;;;;;;;;;-144.98;100.00;62585.19;4954440;29;19925;-77
2023/03/11 14:24:03;;;;;;;;;;;;;;;-144.98;100.00;62585.19;4955005;28;19973;-74
2023/03/11 14:27:09;;;;;;;;;;;;;;;-144.98;100.00;62585.19;4938325;29;19960;-75
2023/03/11 14:30:18;;;;;;;;;;;;;;;-144.98;100.00;62585.19;4955397;29;19973;-76
2023/03/11 14:33:22;;;;;;;;;;;;;;;-144.98;100.00;62585.19;4943164;29;19925;-75
2023/03/11 14:36:25;;;;;;;;;;;;;;;-144.98;100.00;62585.19;4954827;29;19942;-75
2023/03/11 14:39:31;;;;;;;;;;;;;;;-144.98;100.00;62585.19;4955033;29;19926;-77
2023/03/11 14:42:37;;;;;;;;;;;;;;;-144.98;100.00;62585.19;4943280;29;19934;-77
2023/03/11 14:45:42;;;;;;;;;;;;;;;-144.98;100.00;62585.19;4955183;29;19966;-76
2023/03/11 14:48:46;;;;;;;;;;;;;;;-144.98;100.00;62585.19;4954928;29;19976;-77
2023/03/11 14:52:00;;;;;;;;;;;;;;;-144.98;100.00;62585.19;4944974;29;19926;-76
2023/03/11 14:55:12;;;;;;;;;;;;;;;-144.98;100.00;62585.19;4924236;29;20298;-76
2023/03/11 14:58:35;;;;;;;;;;;;;;;-144.98;100.00;62585.19;4935519;29;19965;-76
2023/03/11 15:01:41;;;;;;;;;;;;;;;-144.98;100.00;62585.19;4938689;29;20335;-71
2023/03/11 15:04:46;;;;;;;;;;;;;;;-144.98;100.00;62585.19;4927668;29;19929;-72
2023/03/11 15:07:51;;;;;;;;;;;;;;;-144.98;100.00;62585.19;4939064;29;19969;-70
2023/03/11 15:11:01;;;;;;;;;;;;;;;-144.98;100.00;62585.19;4938847;29;20212;-71
2023/03/11 15:14:20;;;;;;;;;;;;;;;-144.98;100.00;62585.19;4939574;29;19941;-76
2023/03/11 15:17:27;;;;;;;;;;;;;;;-144.98;100.00;62585.19;4939430;29;20418;-75
2023/03/11 15:20:31;;;;;;;;;;;;;;;-144.98;100.00;62585.19;4927632;29;20427;-74
2023/03/11 15:23:35;;;;;;;;;;;;;;;-144.98;100.00;62585.19;4927238;29;20032;-74
2023/03/11 15:26:40;;;;;;;;;;;;;;;-144.98;100.00;62585.19;4938907;29;19926;-74
2023/03/11 15:29:49;;;;;;;;;;;;;;;-144.98;100.00;62585.19;4939285;29;20443;-73
2023/03/11 15:32:55;;;;;;;;;;;;;;;-144.98;100.00;62585.19;4939180;29;20332;-74
2023/03/11 15:35:58;;;;;;;;;;;;;;;-144.98;100.00;62585.19;4938301;29;19970;-73
2023/03/11 15:39:25;;;;;;;;;;;;;;;-144.98;100.00;62585.19;4939570;29;19929;-73
2023/03/11 15:42:30;;;;;;;;;;;;;;;-144.98;100.00;62585.19;4939007;29;19930;-73
2023/03/11 15:45:35;;;;;;;;;;;;;;;-144.98;100.00;62585.19;4927598;29;19925;-75
2023/03/11 15:48:38;;;;;;;;;;;;;;;-144.98;100.00;62585.19;4927086;29;19979;-73
2023/03/11 15:51:41;;;;;;;;;;;;;;;-144.98;100.00;62585.19;4938811;29;20017;-72
2023/03/11 15:54:45;;;;;;;;;;;;;;;-144.98;100.00;62585.19;4938868;29;20022;-75
2023/03/11 15:57:49;;;;;;;;;;;;;;;-144.98;100.00;62585.19;4938478;29;20382;-70
2023/03/11 16:00:56;;;;;;;;;;;;;;;-144.98;100.00;62585.19;4938750;29;19945;-68
2023/03/11 16:04:00;;;;;;;;;;;;;;;-144.98;100.00;62585.19;4938408;29;20013;-69
2023/03/11 16:07:03;;;;;;;;;;;;;;;-144.98;100.00;62585.19;4938333;29;19926;-71
2023/03/11 16:10:08;;;;;;;;;;;;;;;-144.98;100.00;62585.19;4938615;29;20402;-72
2023/03/11 16:13:12;;;;;;;;;;;;;;;-144.98;100.00;62585.19;4937374;29;19977;-73
2023/03/11 16:16:18;;;;;;;;;;;;;;;-144.98;100.00;62585.19;4938565;29;19929;-67
2023/03/11 16:19:23;;;;;;;;;;;;;;;-144.98;100.00;62585.19;4938321;29;19929;-71
2023/03/11 16:22:31;;;;;;;;;;;;;;;-144.98;100.00;62585.19;4931282;29;19973;-68
2023/03/11 16:25:36;;;;;;;;;;;;;;;-144.98;100.00;62585.19;4919075;29;19967;-69
2023/03/11 16:28:40;;;;;;;;;;;;;;;-144.98;100.00;62585.19;4919049;29;19925;-69